»·PEaware :: N416JK KEED-KPSP

N416JK :: KEED-KPSP

FLIGHT INFORMATION

Flight Status: Arrived
Operator: Privately registered:
United States
More flights under this callsign
Pilot: John K. (4202)
Aircraft: Unknown
(EPIC)
More flights by this aircraft type
Origin: KEED Needles
United States
Destination: KPSP Palm Springs Intl
United States
More flights between these airports :: More routes between these airports
Route: +CLIPP V12 ZELMA V514 TNP V370 PSP
File this flight plan on PilotEdge
Remarks:
Altitude:
(Current/Filed)
8,000ft
Speed:
(Current/Filed)
240kts
Departed: 05-Oct-17 07:44 AM
Arrived: 05-Oct-17 08:24 AM
Distance/Time
Traveled:
109nm/0:39
Distance/Time
To Go:
Arrived

Flight Plot

Page will automatically refresh every two minutes.

Flight plan parsing failed; only flown route is shown


Map Options




Map Legend


Flown Route
Filed Route
Departure Airport
Arrival Airport
Navaid (VOR, NDB)
Fix

Horizontal Profiles

Position Reports

Time Latitude Longitude Heading Altitude Ground
Speed
05-Oct-17 07:39 34.759877 -114.620075 110 987ft 0kts
05-Oct-17 07:40 34.759877 -114.620075 110 987ft 0kts
05-Oct-17 07:41 34.759877 -114.620075 110 987ft 0kts
05-Oct-17 07:42 34.759877 -114.620075 110 987ft 0kts
05-Oct-17 07:43 34.759877 -114.620075 110 987ft 0kts
05-Oct-17 07:44 34.759877 -114.620075 110 987ft 0kts
05-Oct-17 07:45 34.759877 -114.620075 110 987ft 0kts
05-Oct-17 07:46 34.759877 -114.620075 110 987ft 0kts
05-Oct-17 07:47 34.760660 -114.619716 297 987ft 0kts
05-Oct-17 07:48 34.766286 -114.643619 242 2302ft 137kts
05-Oct-17 07:49 34.761014 -114.620749 355 4429ft 225kts
05-Oct-17 07:50 34.739976 -114.633800 94 5984ft 275kts
05-Oct-17 07:51 34.776213 -114.640148 238 7154ft 267kts
05-Oct-17 07:52 34.747973 -114.596210 34 7842ft 310kts
05-Oct-17 07:53 34.813802 -114.633258 280 8211ft 294kts
05-Oct-17 07:54 34.804265 -114.725783 263 7989ft 272kts
05-Oct-17 07:55 34.797237 -114.815456 262 7988ft 261kts
05-Oct-17 07:56 34.790105 -114.902386 262 7989ft 259kts
05-Oct-17 07:57 34.782947 -114.988556 262 7988ft 258kts
05-Oct-17 07:58 34.778475 -115.075256 270 7988ft 259kts
05-Oct-17 07:59 34.780450 -115.162334 269 7991ft 260kts
05-Oct-17 08:00 34.782121 -115.249587 269 7991ft 260kts
05-Oct-17 08:01 34.769699 -115.330111 214 7985ft 261kts
05-Oct-17 08:02 34.703332 -115.364185 202 7995ft 262kts
05-Oct-17 08:03 34.634722 -115.394926 202 8038ft 263kts
05-Oct-17 08:04 34.568023 -115.427987 198 8114ft 265kts
05-Oct-17 08:05 34.498634 -115.456704 202 8119ft 267kts
05-Oct-17 08:06 34.428831 -115.486283 201 8118ft 268kts
05-Oct-17 08:07 34.358407 -115.515901 201 8118ft 269kts
05-Oct-17 08:08 34.297487 -115.562001 224 8118ft 264kts
05-Oct-17 08:09 34.244072 -115.621817 225 8118ft 264kts
05-Oct-17 08:10 34.194225 -115.677847 225 8118ft 264kts
05-Oct-17 08:11 34.149593 -115.727977 225 8118ft 264kts
05-Oct-17 08:12 34.104166 -115.793145 247 8118ft 260kts
05-Oct-17 08:13 34.074925 -115.872322 247 8115ft 260kts
05-Oct-17 08:14 34.051797 -115.935587 247 8100ft 260kts
05-Oct-17 08:15 34.022767 -116.014889 247 8062ft 260kts
05-Oct-17 08:16 33.993794 -116.093919 247 8037ft 260kts
05-Oct-17 08:17 33.964441 -116.173056 245 8005ft 262kts
05-Oct-17 08:18 33.933783 -116.251805 250 7973ft 262kts
05-Oct-17 08:19 33.872180 -116.295208 201 6998ft 263kts
05-Oct-17 08:20 33.811544 -116.319135 201 6971ft 206kts
05-Oct-17 08:21 33.763473 -116.337190 201 6381ft 172kts
05-Oct-17 08:22 33.723896 -116.358038 248 5069ft 157kts
05-Oct-17 08:23 33.747250 -116.393023 305 3621ft 140kts
05-Oct-17 08:24 33.761097 -116.432958 290 1983ft 127kts
05-Oct-17 08:25 33.781027 -116.465009 323 1419ft 118kts
05-Oct-17 08:26 33.805959 -116.486700 323 881ft 105kts
05-Oct-17 08:27 33.827015 -116.505340 324 481ft 57kts
05-Oct-17 08:28 33.826455 -116.506824 151 481ft 23kts
05-Oct-17 08:29 33.825759 -116.509724 80 481ft 0kts

Navigation Log

Ident Type
Flight plan parsing failed, navigation log unavailable